Terminal Aerodrome Forecast
Issued by NWS Cleveland, OH

Home | Current Version | Previous Version | Text Only | Print | Product List | Glossary Off
Versions: 1 2 3 4 5 6 7 8 9 10 11 12 13 14 15 16 17 18 19 20 21 22 23 24 25

000
FTUS41 KCLE 281429 CCA
TAFCAK
TAF COR
KCAK 281429Z 2814/2912 01010KT 3SM BR OVC005
      TEMPO 2814/2818 1SM -DZ BR OVC002
     FM281900 36010KT P6SM OVC010
     FM282100 35010KT P6SM OVC020
     FM290200 35008KT P6SM BKN025 OVC035=

USA.gov is the U.S. government's official web portal to all federal, state and local government web resources and services.